Time;durP1;ratioP1;P1;durP2;ratioP2;P2;SDS_P1;SDS_P2;PMS_P1;PMS_P2;Temp;Humidity;BMP_temperature;BMP_pressure;BME280_temperature;BME280_humidity;BME280_pressure;Samples;Min_cycle;Max_cycle;Signal;HPM_P1;HPM_P2
2023/02/05 00:00:00;;;;;;;32.63;8.63;;;;;;;7.19;100.00;103006.44;5013480;28;20030;-90
2023/02/05 00:02:25;;;;;;;35.78;9.35;;;;;;;7.25;100.00;103001.31;5016108;28;20036;-94
2023/02/05 00:04:52;;;;;;;36.08;7.30;;;;;;;7.20;100.00;103007.34;5013575;28;20108;-93
2023/02/05 00:07:17;;;;;;;29.98;7.13;;;;;;;7.23;100.00;103013.31;5028829;28;20022;-95
2023/02/05 00:09:43;;;;;;;28.25;8.18;;;;;;;7.26;100.00;103026.13;5013481;28;20026;-91
2023/02/05 00:12:09;;;;;;;32.63;7.78;;;;;;;7.27;100.00;103014.16;5014198;28;20038;-96
2023/02/05 00:14:34;;;;;;;34.95;7.82;;;;;;;7.30;100.00;103027.00;5024287;28;20183;-93
2023/02/05 00:17:00;;;;;;;39.75;8.98;;;;;;;7.27;100.00;103004.75;5027559;28;20602;-92
2023/02/05 00:19:26;;;;;;;39.78;9.15;;;;;;;7.17;100.00;103013.34;5045693;28;20104;-92
2023/02/05 00:21:51;;;;;;;35.38;8.63;;;;;;;7.30;100.00;103019.28;5017854;28;20113;-92
2023/02/05 00:24:17;;;;;;;23.95;7.45;;;;;;;7.11;100.00;102995.34;5011979;28;20135;-92
2023/02/05 00:26:42;;;;;;;41.03;10.25;;;;;;;7.21;100.00;103025.28;5025730;28;20032;-93
2023/02/05 00:29:08;;;;;;;29.73;8.77;;;;;;;7.35;100.00;103029.56;5043896;28;20029;-91
2023/02/05 00:31:33;;;;;;;33.42;11.00;;;;;;;7.42;100.00;103031.25;5038257;28;20364;-93
2023/02/05 00:33:59;;;;;;;34.92;11.10;;;;;;;7.37;100.00;103050.97;5012228;28;20034;-93
2023/02/05 00:36:25;;;;;;;28.60;7.63;;;;;;;7.41;100.00;103060.38;5044536;28;20482;-93
2023/02/05 00:38:51;;;;;;;18.27;4.25;;;;;;;7.29;100.00;103064.69;5057764;28;20039;-92
2023/02/05 00:41:17;;;;;;;12.70;3.20;;;;;;;7.16;100.00;103052.69;5032440;28;20022;-93
2023/02/05 00:43:43;;;;;;;17.58;2.22;;;;;;;7.08;100.00;103044.16;5028221;28;20495;-93
2023/02/05 00:46:10;;;;;;;10.05;1.73;;;;;;;7.02;100.00;103050.16;5039750;28;20103;-92
2023/02/05 00:48:36;;;;;;;9.68;1.55;;;;;;;6.81;100.00;103045.03;5035042;28;20017;-96
2023/02/05 00:51:02;;;;;;;6.72;1.25;;;;;;;6.65;100.00;103039.00;5051697;28;20032;-96
2023/02/05 00:53:28;;;;;;;14.13;1.95;;;;;;;6.47;100.00;103041.59;5053579;28;20483;-95
2023/02/05 00:55:54;;;;;;;5.47;1.40;;;;;;;6.61;100.00;103068.97;5012055;28;20431;-96
2023/02/05 00:58:20;;;;;;;11.35;2.20;;;;;;;6.59;100.00;103069.81;5053440;28;20021;-95
2023/02/05 01:00:46;;;;;;;6.70;1.70;;;;;;;6.46;100.00;103062.94;5051435;28;20047;-95
2023/02/05 01:03:13;;;;;;;8.32;1.50;;;;;;;6.38;100.00;103065.50;5012646;28;20525;-95
2023/02/05 01:05:39;;;;;;;11.43;1.60;;;;;;;6.47;100.00;103060.38;5011702;28;20488;-95
2023/02/05 01:08:06;;;;;;;10.90;1.83;;;;;;;6.49;100.00;103075.78;5043286;28;20041;-95
2023/02/05 01:10:32;;;;;;;15.43;2.15;;;;;;;6.41;100.00;103081.75;5031064;28;20050;-95
2023/02/05 01:12:58;;;;;;;6.97;1.77;;;;;;;6.50;100.00;103103.16;5025504;28;20073;-95
2023/02/05 01:15:23;;;;;;;16.35;2.85;;;;;;;6.48;100.00;103112.56;5047648;28;20234;-95
2023/02/05 01:17:49;;;;;;;12.88;3.13;;;;;;;6.48;100.00;103118.53;5028820;28;20491;-94
2023/02/05 01:20:15;;;;;;;15.98;2.38;;;;;;;6.51;100.00;103105.72;5067939;28;20108;-95
2023/02/05 01:22:41;;;;;;;7.93;1.55;;;;;;;6.32;100.00;103091.16;5037555;28;20124;-95
2023/02/05 01:25:07;;;;;;;13.43;1.88;;;;;;;6.38;100.00;103076.59;5029802;28;20013;-95
2023/02/05 01:27:34;;;;;;;9.85;1.90;;;;;;;6.46;100.00;103107.41;5021951;28;20112;-94
2023/02/05 01:29:59;;;;;;;13.38;1.92;;;;;;;6.31;100.00;103104.81;5022903;28;20026;-95
2023/02/05 01:32:27;;;;;;;9.38;1.88;;;;;;;6.11;100.00;103092.75;5046882;28;20088;-95
2023/02/05 01:34:52;;;;;;;12.68;2.83;;;;;;;6.07;100.00;103110.69;5030658;28;20037;-95
2023/02/05 01:37:18;;;;;;;10.05;1.90;;;;;;;5.98;100.00;103112.38;5031221;28;20036;-94
2023/02/05 01:39:43;;;;;;;16.15;2.28;;;;;;;5.85;100.00;103095.16;5055320;28;20510;-96
2023/02/05 01:42:30;;;;;;;8.13;2.63;;;;;;;5.64;100.00;103115.56;5042223;28;20026;-94
2023/02/05 01:45:21;;;;;;;15.40;2.35;;;;;;;5.55;100.00;103119.78;5017192;28;20029;-94
2023/02/05 01:48:01;;;;;;;16.80;2.72;;;;;;;5.45;100.00;103135.94;5031277;28;20383;-96
2023/02/05 01:50:43;;;;;;;9.20;1.80;;;;;;;5.49;100.00;103142.81;5033933;28;20107;-95
2023/02/05 01:53:20;;;;;;;19.80;3.03;;;;;;;5.35;100.00;103123.91;5033696;28;20034;-95
2023/02/05 01:55:59;;;;;;;16.05;2.63;;;;;;;5.53;100.00;103136.84;5017560;28;20387;-95
2023/02/05 01:58:29;;;;;;;7.93;1.73;;;;;;;5.32;100.00;103108.53;5016034;28;20029;-95
2023/02/05 02:00:56;;;;;;;24.42;3.53;;;;;;;5.24;100.00;103115.28;5014328;28;20504;-96
2023/02/05 02:03:26;;;;;;;14.40;2.63;;;;;;;5.00;100.00;103114.25;5018668;28;20025;-95
2023/02/05 02:05:53;;;;;;;21.35;2.10;;;;;;;4.98;100.00;103133.84;5033764;28;20511;-95
2023/02/05 02:08:18;;;;;;;20.70;2.80;;;;;;;4.90;100.00;103120.09;5041146;28;20039;-94
2023/02/05 02:10:45;;;;;;;23.65;2.75;;;;;;;4.79;100.00;103119.16;5015459;28;20034;-94
2023/02/05 02:13:12;;;;;;;12.63;2.28;;;;;;;4.85;100.00;103127.78;5033528;28;20391;-93
2023/02/05 02:15:39;;;;;;;13.82;2.45;;;;;;;4.75;100.00;103136.16;5031153;28;20538;-95
2023/02/05 02:21:18;;;;;;;11.93;2.00;;;;;;;4.55;100.00;103138.53;5016333;28;20084;-94
2023/02/05 02:24:10;;;;;;;14.50;2.10;;;;;;;4.28;100.00;103139.06;5014581;28;20057;-95
2023/02/05 02:26:54;;;;;;;12.60;2.38;;;;;;;4.15;100.00;103127.84;5023013;28;20033;-94
2023/02/05 02:29:33;;;;;;;16.08;2.67;;;;;;;4.02;100.00;103137.06;5014489;28;20116;-95
2023/02/05 02:32:14;;;;;;;13.70;2.58;;;;;;;3.81;100.00;103135.06;5014330;28;20033;-95
2023/02/05 02:34:47;;;;;;;16.13;2.55;;;;;;;3.55;100.00;103138.91;5014255;28;20026;-94
2023/02/05 02:37:38;;;;;;;16.75;2.80;;;;;;;3.56;100.00;103130.41;5014702;28;20392;-95
2023/02/05 02:40:14;;;;;;;15.80;1.95;;;;;;;3.57;100.00;103112.56;5023101;28;20133;-95
2023/02/05 02:42:46;;;;;;;15.32;1.83;;;;;;;3.48;100.00;103134.53;5030932;28;20026;-95
2023/02/05 02:45:13;;;;;;;;;;;;;;;3.37;100.00;103147.16;5014494;28;20022;-95
2023/02/05 02:47:48;;;;;;;19.90;2.40;;;;;;;3.24;100.00;103147.78;5027500;28;20286;-95
2023/02/05 02:50:20;;;;;;;16.42;2.22;;;;;;;3.10;100.00;103150.13;5033987;28;20033;-95
2023/02/05 02:52:47;;;;;;;10.93;2.40;;;;;;;2.98;100.00;103123.53;5050079;28;20033;-95
2023/02/05 02:55:16;;;;;;;12.60;2.22;;;;;;;3.10;100.00;103129.69;5048957;28;20488;-94
2023/02/05 02:57:45;;;;;;;14.07;3.22;;;;;;;3.05;100.00;103146.59;5030132;28;20029;-94
2023/02/05 03:00:23;;;;;;;17.50;2.25;;;;;;;2.99;100.00;103160.13;5014722;28;20049;-94
2023/02/05 03:02:53;;;;;;;19.95;2.50;;;;;;;2.88;100.00;103159.03;5013702;28;20472;-94
2023/02/05 03:05:21;;;;;;;20.92;2.67;;;;;;;2.89;100.00;103170.97;5013297;28;20464;-94
2023/02/05 03:07:53;;;;;;;20.52;2.53;;;;;;;3.16;100.00;103161.25;5013647;28;20018;-94
2023/02/05 03:10:42;;;;;;;19.33;3.65;;;;;;;3.04;100.00;103175.50;5014583;28;20570;-94
2023/02/05 03:13:11;;;;;;;10.25;1.90;;;;;;;3.07;100.00;103190.84;5013278;28;20046;-93
2023/02/05 03:15:40;;;;;;;20.83;2.63;;;;;;;3.06;100.00;103217.22;5013536;28;20040;-94
2023/02/05 03:18:06;;;;;;;13.95;1.83;;;;;;;2.98;100.00;103224.75;5013324;28;20018;-94
2023/02/05 03:20:55;;;;;;;18.20;2.75;;;;;;;3.29;100.00;103220.19;5013472;28;20029;-95
2023/02/05 03:23:22;;;;;;;18.08;3.05;;;;;;;3.34;100.00;103211.78;5020926;28;20022;-94
2023/02/05 03:25:48;;;;;;;17.58;2.35;;;;;;;3.21;100.00;103225.16;5014296;28;20108;-94
2023/02/05 03:28:14;;;;;;;19.58;2.50;;;;;;;3.26;100.00;103231.19;5013148;28;20112;-94
2023/02/05 03:30:51;;;;;;;16.85;4.03;;;;;;;3.24;100.00;103240.50;5013234;28;20033;-94
2023/02/05 03:33:33;;;;;;;15.07;2.55;;;;;;;3.14;100.00;103243.72;5014126;28;20038;-94
2023/02/05 03:36:05;;;;;;;19.48;2.42;;;;;;;3.12;100.00;103230.06;5014250;28;20037;-95
2023/02/05 03:38:55;;;;;;;20.77;2.60;;;;;;;3.29;100.00;103258.47;5019495;28;20521;-95
2023/02/05 03:44:58;;;;;;;15.88;2.58;;;;;;;3.12;100.00;103271.78;5034413;28;20032;-94
2023/02/05 03:48:01;;;;;;;10.80;1.98;;;;;;;3.19;100.00;103277.84;5000009;28;20506;-95
2023/02/05 03:51:01;;;;;;;22.13;2.60;;;;;;;3.12;100.00;103276.00;5032863;28;20128;-94
2023/02/05 03:53:37;;;;;;;16.80;2.55;;;;;;;2.87;100.00;103272.97;5008705;28;20116;-94
2023/02/05 03:56:08;;;;;;;14.40;2.08;;;;;;;2.61;100.00;103262.25;5034235;28;20395;-93
2023/02/05 03:58:47;;;;;;;19.77;2.80;;;;;;;2.65;100.00;103278.47;5013402;28;20068;-94
2023/02/05 04:01:13;;;;;;;16.75;2.75;;;;;;;2.67;100.00;103246.22;5013822;28;20025;-94
2023/02/05 04:03:39;;;;;;;16.95;2.53;;;;;;;2.58;100.00;103274.94;5012559;28;20030;-93
2023/02/05 04:06:05;;;;;;;24.17;2.78;;;;;;;2.39;100.00;103276.25;5012262;28;20075;-94
2023/02/05 04:08:31;;;;;;;21.23;2.67;;;;;;;2.57;100.00;103271.53;5012214;28;20475;-93
2023/02/05 04:10:56;;;;;;;19.48;2.88;;;;;;;2.56;100.00;103274.91;5012655;28;20021;-94
2023/02/05 04:13:22;;;;;;;17.02;3.10;;;;;;;2.46;100.00;103278.06;5013276;28;20029;-94
2023/02/05 04:15:49;;;;;;;23.95;3.67;;;;;;;2.30;100.00;103291.31;5013476;28;20036;-93
2023/02/05 04:18:15;;;;;;;24.73;3.20;;;;;;;2.28;100.00;103298.91;5028234;28;20032;-94
2023/02/05 04:20:40;;;;;;;22.45;3.03;;;;;;;2.30;100.00;103302.38;5012363;28;20041;-93
2023/02/05 04:23:06;;;;;;;20.45;3.33;;;;;;;2.38;100.00;103320.38;5013393;28;20084;-93
2023/02/05 04:25:32;;;;;;;27.95;3.35;;;;;;;2.39;100.00;103322.13;5012255;28;20038;-93
2023/02/05 04:27:57;;;;;;;21.77;2.97;;;;;;;2.31;100.00;103331.25;5014246;28;20407;-93
2023/02/05 04:30:23;;;;;;;17.13;2.40;;;;;;;2.43;100.00;103329.00;5012128;28;20022;-94
2023/02/05 04:32:49;;;;;;;18.73;4.13;;;;;;;2.29;100.00;103315.06;5013095;28;20029;-93
2023/02/05 04:35:14;;;;;;;17.10;3.33;;;;;;;2.27;100.00;103332.03;5028319;28;20037;-93
2023/02/05 04:37:40;;;;;;;21.75;3.45;;;;;;;2.06;100.00;103317.94;5011831;28;20079;-93
2023/02/05 04:40:06;;;;;;;18.23;2.45;;;;;;;2.26;100.00;103338.78;5011804;28;20033;-94
2023/02/05 04:42:31;;;;;;;26.30;2.90;;;;;;;2.16;100.00;103339.41;5013043;28;20036;-94
2023/02/05 04:44:57;;;;;;;17.33;2.22;;;;;;;2.12;100.00;103338.47;5013040;28;20392;-94
2023/02/05 04:47:22;;;;;;;22.35;3.72;;;;;;;2.57;100.00;103329.31;5028198;28;20025;-93
2023/02/05 04:49:48;;;;;;;23.63;3.15;;;;;;;2.61;100.00;103332.78;5012762;28;20125;-93
2023/02/05 04:52:13;;;;;;;17.58;2.35;;;;;;;2.50;100.00;103335.94;5028098;28;20594;-94
2023/02/05 04:54:39;;;;;;;18.58;2.63;;;;;;;2.31;100.00;103344.00;5011563;28;20036;-95
2023/02/05 04:57:04;;;;;;;15.75;2.42;;;;;;;2.24;100.00;103352.31;5031392;28;20026;-94
2023/02/05 04:59:30;;;;;;;20.48;3.85;;;;;;;2.17;100.00;103353.00;5011799;28;20149;-93
2023/02/05 05:01:57;;;;;;;30.83;3.22;;;;;;;2.19;100.00;103336.91;5011624;28;20049;-93
2023/02/05 05:04:22;;;;;;;13.00;2.53;;;;;;;2.21;100.00;103337.81;5011476;28;20476;-94
2023/02/05 05:06:48;;;;;;;20.80;5.20;;;;;;;2.36;100.00;103347.50;5011562;28;20032;-94
2023/02/05 05:09:13;;;;;;;20.75;3.20;;;;;;;2.29;100.00;103345.63;5011623;28;20026;-93
2023/02/05 05:11:39;;;;;;;28.58;3.72;;;;;;;2.31;100.00;103349.09;5014323;28;20108;-94
2023/02/05 05:14:04;;;;;;;13.90;2.72;;;;;;;2.21;100.00;103347.16;5027948;28;20026;-94
2023/02/05 05:16:30;;;;;;;21.00;2.85;;;;;;;2.37;100.00;103356.91;5011616;28;20057;-94
2023/02/05 05:18:56;;;;;;;19.75;2.97;;;;;;;2.27;100.00;103352.41;5011576;28;20423;-94
2023/02/05 05:21:21;;;;;;;19.38;3.28;;;;;;;2.12;100.00;103346.13;5011288;28;20033;-93
2023/02/05 05:23:47;;;;;;;11.13;2.45;;;;;;;2.11;100.00;103362.22;5011178;28;20034;-94
2023/02/05 05:26:12;;;;;;;12.60;2.67;;;;;;;2.14;100.00;103367.38;5012640;28;20033;-93
2023/02/05 05:28:38;;;;;;;23.05;2.63;;;;;;;2.07;100.00;103351.91;5014555;28;20034;-94
2023/02/05 05:31:12;;;;;;;24.13;4.88;;;;;;;2.01;100.00;103370.44;5016679;28;20113;-94
2023/02/05 05:33:38;;;;;;;21.65;4.10;;;;;;;1.85;100.00;103375.97;5031935;28;20025;-94
2023/02/05 05:36:05;;;;;;;21.50;3.35;;;;;;;1.68;100.00;103380.63;5032092;28;20141;-91
2023/02/05 05:38:31;;;;;;;16.95;2.85;;;;;;;1.79;100.00;103380.91;5015341;28;20022;-93
2023/02/05 05:43:46;;;;;;;27.17;3.15;;;;;;;1.75;100.00;103422.38;5016795;28;20084;-94
2023/02/05 05:46:24;;;;;;;13.00;2.85;;;;;;;1.73;100.00;103424.03;5015074;28;20037;-94
2023/02/05 05:48:55;;;;;;;18.10;2.90;;;;;;;1.62;100.00;103424.59;5016410;28;20038;-94
2023/02/05 05:51:22;;;;;;;22.40;4.15;;;;;;;1.43;100.00;103424.91;5031458;28;20029;-93
2023/02/05 05:53:48;;;;;;;20.15;2.67;;;;;;;1.39;100.00;103428.16;5015098;28;20485;-93
2023/02/05 05:56:14;;;;;;;20.38;4.32;;;;;;;1.42;100.00;103418.09;5014986;28;20129;-93
2023/02/05 05:58:40;;;;;;;13.90;2.33;;;;;;;1.48;100.00;103390.25;5031587;28;20053;-95
2023/02/05 06:01:08;;;;;;;14.65;2.97;;;;;;;1.56;100.00;103424.44;5031170;28;20056;-94
2023/02/05 06:03:34;;;;;;;18.88;3.65;;;;;;;1.54;100.00;103428.63;5014787;28;20030;-95
2023/02/05 06:06:04;;;;;;;24.92;4.30;;;;;;;1.44;100.00;103424.06;5015973;28;20096;-93
2023/02/05 06:08:30;;;;;;;18.30;2.60;;;;;;;1.35;100.00;103421.28;5014767;28;20026;-94
2023/02/05 06:10:55;;;;;;;17.45;2.58;;;;;;;1.27;100.00;103429.56;5031268;28;20028;-94
2023/02/05 06:13:21;;;;;;;23.55;4.82;;;;;;;1.16;100.00;103435.13;5031383;28;20033;-94
2023/02/05 06:15:47;;;;;;;22.50;2.85;;;;;;;1.08;100.00;103437.47;5031893;28;20061;-93
2023/02/05 06:18:17;;;;;;;17.58;2.40;;;;;;;1.04;100.00;103450.88;5031234;28;20030;-94
2023/02/05 06:20:43;;;;;;;14.63;2.55;;;;;;;0.84;100.00;103447.75;5015432;28;20022;-94
2023/02/05 06:23:08;;;;;;;15.68;2.38;;;;;;;0.70;100.00;103454.91;5030550;28;20030;-94
2023/02/05 06:25:34;;;;;;;17.77;3.03;;;;;;;0.76;100.00;103451.72;5030675;28;20041;-94
2023/02/05 06:27:59;;;;;;;13.35;2.47;;;;;;;0.68;100.00;103446.38;5034007;28;20065;-94
2023/02/05 06:30:26;;;;;;;19.80;3.15;;;;;;;0.76;100.00;103467.84;5015415;28;20022;-93
2023/02/05 06:32:52;;;;;;;20.02;2.83;;;;;;;0.94;100.00;103459.91;5013837;28;20079;-94
2023/02/05 06:35:17;;;;;;;20.70;2.55;;;;;;;1.05;100.00;103463.66;5015295;28;20034;-94
2023/02/05 06:37:43;;;;;;;17.58;2.53;;;;;;;0.86;100.00;103461.38;5015374;28;20431;-94
2023/02/05 06:40:09;;;;;;;20.73;2.60;;;;;;;0.80;100.00;103464.56;5029708;28;20056;-94
2023/02/05 06:42:34;;;;;;;15.93;3.10;;;;;;;0.81;100.00;103463.75;5017698;28;20026;-93
2023/02/05 06:45:00;;;;;;;16.55;2.45;;;;;;;0.89;100.00;103475.84;5013909;28;20377;-94
2023/02/05 06:47:25;;;;;;;22.40;3.03;;;;;;;0.93;100.00;103458.19;5014117;28;20026;-93
2023/02/05 06:49:51;;;;;;;22.52;2.42;;;;;;;0.94;100.00;103466.69;5014852;28;20025;-94
2023/02/05 06:52:16;;;;;;;17.48;2.97;;;;;;;0.91;100.00;103469.16;5013790;28;20117;-95
2023/02/05 06:54:43;;;;;;;17.50;2.70;;;;;;;0.95;100.00;103481.13;5013528;28;20029;-94
2023/02/05 06:57:09;;;;;;;17.27;2.92;;;;;;;0.79;100.00;103495.03;5017414;28;20020;-94
2023/02/05 06:59:35;;;;;;;35.03;3.65;;;;;;;0.58;100.00;103474.84;5014977;28;20040;-94
2023/02/05 07:02:01;;;;;;;14.98;2.60;;;;;;;0.55;100.00;103475.63;5014807;28;20034;-94
2023/02/05 07:04:26;;;;;;;14.25;2.50;;;;;;;0.59;100.00;103476.59;5013509;28;20483;-94
2023/02/05 07:06:55;;;;;;;18.75;3.03;;;;;;;0.64;100.00;103495.41;5014864;28;20099;-93
2023/02/05 07:09:21;;;;;;;22.77;3.10;;;;;;;0.56;100.00;103501.88;5013578;28;20030;-94
2023/02/05 07:11:46;;;;;;;28.05;4.05;;;;;;;0.34;100.00;103507.91;5013360;28;20029;-94
2023/02/05 07:14:12;;;;;;;22.45;4.00;;;;;;;0.19;100.00;103513.34;5017169;28;20030;-94
2023/02/05 07:16:37;;;;;;;23.52;3.55;;;;;;;0.08;100.00;103507.91;5013542;28;20029;-94
2023/02/05 07:19:03;;;;;;;14.00;2.63;;;;;;;0.37;100.00;103526.69;5030072;28;20373;-93
2023/02/05 07:21:28;;;;;;;22.75;3.13;;;;;;;0.64;100.00;103525.91;5014185;28;20107;-94
2023/02/05 07:23:54;;;;;;;19.45;3.22;;;;;;;0.76;100.00;103530.53;5029601;28;20045;-95
2023/02/05 07:26:19;;;;;;;11.35;2.47;;;;;;;0.62;100.00;103537.69;5013256;28;20463;-94
2023/02/05 07:28:45;;;;;;;17.45;2.45;;;;;;;0.65;100.00;103532.72;5027811;28;20022;-94
2023/02/05 07:31:14;;;;;;;19.80;2.50;;;;;;;0.63;100.00;103545.38;5029791;28;20472;-93
2023/02/05 07:33:42;;;;;;;14.98;2.70;;;;;;;0.69;100.00;103538.78;5013014;28;20030;-93
2023/02/05 07:36:09;;;;;;;30.00;5.85;;;;;;;0.67;100.00;103528.53;5013239;28;20033;-94
2023/02/05 07:38:36;;;;;;;16.38;3.10;;;;;;;0.70;100.00;103538.81;5013145;28;20018;-93
2023/02/05 07:41:04;;;;;;;23.38;3.30;;;;;;;0.73;100.00;103545.66;5012982;28;20223;-93
2023/02/05 07:43:29;;;;;;;14.70;2.67;;;;;;;0.55;100.00;103545.91;5028487;28;20025;-94
2023/02/05 07:45:56;;;;;;;17.63;3.05;;;;;;;0.48;100.00;103518.56;5048236;28;20100;-94
2023/02/05 07:48:22;;;;;;;21.70;2.88;;;;;;;0.82;100.00;103541.75;5030556;28;20025;-96
2023/02/05 07:50:47;;;;;;;23.80;3.28;;;;;;;1.03;100.00;103550.91;5027268;28;20372;-94
2023/02/05 07:53:13;;;;;;;18.65;2.75;;;;;;;0.96;100.00;103544.75;5029060;28;20033;-94
2023/02/05 07:55:38;;;;;;;21.63;3.83;;;;;;;0.83;100.00;103543.50;5048994;28;20029;-94
2023/02/05 07:58:04;;;;;;;24.05;2.95;;;;;;;0.90;100.00;103553.84;5027289;28;20026;-94
2023/02/05 08:00:30;;;;;;;18.10;2.63;;;;;;;0.79;100.00;103541.66;5009535;28;20126;-94
2023/02/05 08:02:55;;;;;;;18.77;2.60;;;;;;;0.96;100.00;103564.25;5009985;28;20053;-93
2023/02/05 08:05:21;;;;;;;26.08;2.83;;;;;;;0.96;100.00;103557.47;5063130;28;20075;-95
2023/02/05 08:07:46;;;;;;;14.43;2.95;;;;;;;1.26;100.00;103555.03;5066239;28;20490;-95
2023/02/05 08:10:13;;;;;;;24.02;3.00;;;;;;;1.35;100.00;103564.66;5041519;28;20025;-94
2023/02/05 08:12:38;;;;;;;23.58;2.83;;;;;;;1.42;100.00;103561.47;5020108;28;20487;-93
2023/02/05 08:15:04;;;;;;;19.77;3.28;;;;;;;1.53;100.00;103559.25;5042939;28;20119;-94
2023/02/05 08:17:30;;;;;;;18.50;2.63;;;;;;;1.67;100.00;103544.41;5049123;28;20032;-94
2023/02/05 08:19:56;;;;;;;16.60;2.50;;;;;;;1.66;100.00;103550.31;5031591;28;20479;-95
2023/02/05 08:22:21;;;;;;;19.33;2.70;;;;;;;1.98;100.00;103558.88;5041154;28;20052;-93
2023/02/05 08:24:47;;;;;;;17.13;2.45;;;;;;;2.21;100.00;103558.66;5031762;28;20140;-94
2023/02/05 08:27:12;;;;;;;21.98;2.67;;;;;;;2.33;99.49;103546.25;5026363;28;20030;-93
2023/02/05 08:29:38;;;;;;;13.68;2.75;;;;;;;2.41;98.68;103539.66;5025122;28;20026;-94
2023/02/05 08:32:03;;;;;;;19.83;2.47;;;;;;;2.61;96.96;103563.16;5026080;28;20076;-94
2023/02/05 08:34:29;;;;;;;29.27;7.03;;;;;;;3.29;91.76;103560.56;5048130;28;20580;-95
2023/02/05 08:36:56;;;;;;;21.58;2.97;;;;;;;3.28;90.85;103576.69;5048942;28;20040;-94
2023/02/05 08:39:22;;;;;;;13.35;2.55;;;;;;;3.43;89.69;103559.16;5040015;28;20561;-95
2023/02/05 08:41:48;;;;;;;20.90;3.25;;;;;;;3.41;86.37;103548.06;5017954;28;20109;-94
2023/02/05 08:44:13;;;;;;;14.07;2.75;;;;;;;3.59;86.81;103562.94;5034492;28;20030;-96
2023/02/05 08:46:39;;;;;;;17.15;2.38;;;;;;;3.57;85.72;103572.25;5021343;28;20033;-93
2023/02/05 08:49:05;;;;;;;11.73;2.15;;;;;;;3.53;85.77;103580.66;5016031;28;20067;-94
2023/02/05 08:51:32;;;;;;;15.52;3.97;;;;;;;3.49;84.38;103580.56;5018286;28;20057;-94
2023/02/05 08:53:58;;;;;;;25.02;3.35;;;;;;;3.39;84.05;103577.81;5022041;28;20024;-93
2023/02/05 08:56:24;;;;;;;10.65;2.20;;;;;;;3.58;83.35;103598.66;5065335;28;20629;-95
2023/02/05 08:58:50;;;;;;;9.75;2.30;;;;;;;3.66;82.11;103592.03;5051515;28;20038;-96
2023/02/05 09:01:16;;;;;;;13.18;2.80;;;;;;;3.53;81.76;103579.81;5022399;28;20025;-93
2023/02/05 09:03:41;;;;;;;12.23;2.72;;;;;;;3.57;81.71;103568.84;5029404;28;20099;-94
2023/02/05 09:06:09;;;;;;;18.10;3.00;;;;;;;3.53;80.31;103560.22;5032872;28;20434;-96
2023/02/05 09:08:35;;;;;;;17.40;2.55;;;;;;;4.15;78.17;103598.19;5045710;28;20022;-94
2023/02/05 09:11:01;;;;;;;11.10;2.28;;;;;;;4.19;76.27;103574.38;5048534;28;20095;-95
2023/02/05 09:13:28;;;;;;;12.82;2.25;;;;;;;4.45;75.53;103561.25;5014038;28;20057;-96
2023/02/05 09:15:54;;;;;;;15.13;1.98;;;;;;;4.86;75.03;103579.88;5021434;28;20116;-95
2023/02/05 09:18:19;;;;;;;15.20;2.53;;;;;;;5.15;73.24;103577.78;5012477;28;20549;-96
2023/02/05 09:20:47;;;;;;;15.05;2.15;;;;;;;5.26;73.27;103589.91;5008832;28;20022;-95
2023/02/05 09:23:14;;;;;;;22.48;2.65;;;;;;;5.95;66.95;103563.56;5023433;28;20033;-96
2023/02/05 09:25:40;;;;;;;11.77;1.70;;;;;;;6.48;65.11;103564.13;5048559;28;20111;-94
2023/02/05 09:28:08;;;;;;;9.13;2.58;;;;;;;7.22;63.47;103561.34;5065233;28;20123;-96
2023/02/05 09:30:42;;;;;;;10.10;1.90;;;;;;;7.06;61.52;103544.09;5049976;28;20026;-96
2023/02/05 09:33:09;;;;;;;19.90;4.15;;;;;;;7.94;60.60;103573.69;5018850;28;20041;-96
2023/02/05 09:35:35;;;;;;;8.57;1.95;;;;;;;7.45;61.07;103573.47;5008970;28;20049;-96
2023/02/05 09:38:02;;;;;;;16.30;2.17;;;;;;;7.97;60.29;103585.72;5009778;28;20471;-96
2023/02/05 09:41:00;;;;;;;11.15;2.05;;;;;;;8.93;57.07;103579.94;5031656;28;20034;-96
2023/02/05 09:43:37;;;;;;;16.58;2.50;;;;;;;8.35;58.44;103576.41;5048362;28;20042;-95
2023/02/05 09:46:12;;;;;;;13.68;1.88;;;;;;;8.62;58.48;103602.22;5039080;28;20034;-96
2023/02/05 09:48:50;;;;;;;16.90;2.38;;;;;;;9.98;53.94;103578.84;5008696;28;20034;-91
2023/02/05 09:51:20;;;;;;;19.27;3.13;;;;;;;9.20;53.59;103543.84;5010734;28;20396;-93
2023/02/05 09:54:02;;;;;;;14.30;2.88;;;;;;;9.08;54.98;103568.78;5019884;28;20029;-94
2023/02/05 09:56:28;;;;;;;23.67;2.53;;;;;;;10.73;51.78;103559.47;5029723;28;20096;-95
2023/02/05 09:58:56;;;;;;;13.52;2.38;;;;;;;11.35;48.95;103562.31;5014926;28;20491;-95
2023/02/05 10:01:37;;;;;;;17.60;3.03;;;;;;;11.74;47.32;103550.66;5026524;28;20546;-93
2023/02/05 10:04:04;;;;;;;13.65;2.30;;;;;;;13.31;44.55;103575.94;5026120;28;20033;-96
2023/02/05 10:06:35;;;;;;;13.98;2.47;;;;;;;13.30;43.76;103584.59;5028135;28;20025;-96
2023/02/05 10:09:25;;;;;;;10.25;2.10;;;;;;;13.68;44.19;103583.88;5048087;28;20032;-95
2023/02/05 10:11:56;;;;;;;13.73;2.47;;;;;;;15.90;38.92;103590.56;5039932;28;20030;-94
2023/02/05 10:14:40;;;;;;;8.52;2.20;;;;;;;17.47;36.42;103604.53;5020652;28;20026;-95
2023/02/05 10:17:06;;;;;;;12.68;2.45;;;;;;;17.09;35.55;103606.75;5033418;28;20032;-96
2023/02/05 10:19:50;;;;;;;12.65;2.30;;;;;;;15.81;39.00;103612.50;5045531;28;20521;-92
2023/02/05 10:22:42;;;;;;;6.65;1.75;;;;;;;15.08;37.87;103594.50;5045198;28;20038;-93
2023/02/05 10:25:26;;;;;;;;;;;;;;;13.19;41.10;103596.00;5031737;28;20119;-93
2023/02/05 10:27:54;;;;;;;13.88;2.30;;;;;;;13.66;41.35;103602.06;5034104;28;19920;-96
2023/02/05 10:30:32;;;;;;;11.50;2.08;;;;;;;16.03;36.56;103571.03;5024366;28;20353;-95
2023/02/05 10:33:04;;;;;;;15.05;2.83;;;;;;;14.64;38.11;103580.03;5015328;28;20072;-95
2023/02/05 10:35:38;;;;;;;8.45;2.30;;;;;;;14.16;39.71;103590.66;5066451;28;20063;-96
2023/02/05 10:38:15;;;;;;;7.60;1.70;;;;;;;16.93;36.12;103574.25;5036527;28;20032;-96
2023/02/05 10:40:45;;;;;;;9.43;2.05;;;;;;;17.14;34.71;103603.97;5023421;28;20097;-91
2023/02/05 10:43:16;;;;;;;11.38;1.70;;;;;;;15.20;37.70;103615.00;5047712;28;20025;-93
2023/02/05 10:45:42;;;;;;;8.55;1.77;;;;;;;15.87;36.84;103606.25;5068185;28;20487;-96
2023/02/05 10:48:36;;;;;;;6.82;2.13;;;;;;;18.29;33.60;103609.31;5056138;28;20034;-94
2023/02/05 10:51:15;;;;;;;6.97;1.77;;;;;;;15.50;36.32;103601.22;5044507;28;20555;-94
2023/02/05 10:53:41;;;;;;;9.05;1.83;;;;;;;13.17;40.87;103596.91;5024543;28;20060;-92
2023/02/05 10:56:13;;;;;;;8.52;1.85;;;;;;;11.90;42.27;103574.66;5052123;28;20029;-93
2023/02/05 10:58:53;;;;;;;;;;;;;;;12.58;42.90;103595.28;5046416;28;20014;-95
2023/02/05 11:01:35;;;;;;;17.90;2.55;;;;;;;12.98;40.82;103602.41;5031125;28;20010;-93
2023/02/05 11:04:12;;;;;;;8.05;2.15;;;;;;;13.64;40.65;103609.03;5044093;28;20021;-95
2023/02/05 11:06:49;;;;;;;14.20;2.33;;;;;;;13.81;39.37;103584.47;5053590;28;20083;-95
2023/02/05 11:09:24;;;;;;;11.65;2.08;;;;;;;13.73;40.67;103596.72;5024566;28;20022;-95
2023/02/05 11:11:54;;;;;;;8.95;1.73;;;;;;;14.66;38.94;103578.25;5023187;28;20026;-96
2023/02/05 11:14:27;;;;;;;12.35;2.25;;;;;;;15.94;37.23;103607.78;5038423;28;20030;-93
2023/02/05 11:16:52;;;;;;;7.60;2.00;;;;;;;17.84;35.18;103589.31;5035916;28;20087;-96
2023/02/05 11:19:25;;;;;;;10.43;3.13;;;;;;;17.69;33.54;103602.00;5049738;28;20026;-93
2023/02/05 11:21:55;;;;;;;7.45;2.25;;;;;;;14.71;37.62;103597.19;5041556;28;20356;-93
2023/02/05 11:24:31;;;;;;;7.95;1.92;;;;;;;17.12;34.81;103592.75;5033894;28;20029;-94
2023/02/05 11:27:32;;;;;;;11.98;2.97;;;;;;;16.27;34.55;103611.13;5030319;28;20028;-93
2023/02/05 11:30:18;;;;;;;12.20;1.88;;;;;;;16.49;35.86;103610.47;4982360;28;20034;-95
2023/02/05 11:32:44;;;;;;;11.82;2.47;;;;;;;16.12;36.17;103593.38;5027859;28;20124;-92
2023/02/05 11:35:17;;;;;;;9.82;1.92;;;;;;;14.32;38.88;103592.03;5040844;28;20528;-93
2023/02/05 11:37:43;;;;;;;10.30;2.35;;;;;;;14.48;38.06;103603.75;5013885;28;20061;-92